sensor_id;sensor_type;location;lat;lon;timestamp;pressure;altitude;pressure_sealevel;temperature;humidity
61506;BME280;47366;51.916;4.574;2023-01-13T00:00:44;100429.44;;;8.28;91.54
61506;BME280;47366;51.916;4.574;2023-01-13T00:03:09;100418.81;;;8.25;92.04
61506;BME280;47366;51.916;4.574;2023-01-13T00:05:36;100428.72;;;8.24;92.79
61506;BME280;47366;51.916;4.574;2023-01-13T00:08:02;100418.97;;;8.22;92.67
61506;BME280;47366;51.916;4.574;2023-01-13T00:10:29;100426.13;;;8.23;93.09
61506;BME280;47366;51.916;4.574;2023-01-13T00:12:54;100423.44;;;8.23;92.68
61506;BME280;47366;51.916;4.574;2023-01-13T00:15:20;100430.56;;;8.24;92.99
61506;BME280;47366;51.916;4.574;2023-01-13T00:17:45;100423.50;;;8.21;92.94
61506;BME280;47366;51.916;4.574;2023-01-13T00:20:12;100414.47;;;8.22;93.25
61506;BME280;47366;51.916;4.574;2023-01-13T00:22:38;100424.31;;;8.23;93.36
61506;BME280;47366;51.916;4.574;2023-01-13T00:25:03;100418.81;;;8.25;93.05
61506;BME280;47366;51.916;4.574;2023-01-13T00:27:31;100427.66;;;8.27;92.84
61506;BME280;47366;51.916;4.574;2023-01-13T00:29:56;100414.97;;;8.29;93.57
61506;BME280;47366;51.916;4.574;2023-01-13T00:32:22;100419.41;;;8.30;93.21
61506;BME280;47366;51.916;4.574;2023-01-13T00:34:47;100415.75;;;8.31;93.37
61506;BME280;47366;51.916;4.574;2023-01-13T00:37:12;100418.44;;;8.31;93.24
61506;BME280;47366;51.916;4.574;2023-01-13T00:39:39;100413.44;;;8.25;93.51
61506;BME280;47366;51.916;4.574;2023-01-13T00:42:04;100418.63;;;8.28;93.64
61506;BME280;47366;51.916;4.574;2023-01-13T00:44:48;100411.47;;;8.27;93.75
61506;BME280;47366;51.916;4.574;2023-01-13T00:47:13;100418.81;;;8.25;93.82
61506;BME280;47366;51.916;4.574;2023-01-13T00:49:39;100418.03;;;8.23;93.86
61506;BME280;47366;51.916;4.574;2023-01-13T00:52:04;100417.19;;;8.22;93.98
61506;BME280;47366;51.916;4.574;2023-01-13T00:54:29;100411.94;;;8.19;94.07
61506;BME280;47366;51.916;4.574;2023-01-13T00:56:55;100407.41;;;8.20;94.22
61506;BME280;47366;51.916;4.574;2023-01-13T00:59:20;100395.94;;;8.16;94.33
61506;BME280;47366;51.916;4.574;2023-01-13T01:01:45;100391.59;;;8.14;94.73
61506;BME280;47366;51.916;4.574;2023-01-13T01:04:11;100392.72;;;8.09;95.09
61506;BME280;47366;51.916;4.574;2023-01-13T01:06:36;100387.53;;;8.06;95.12
61506;BME280;47366;51.916;4.574;2023-01-13T01:09:02;100399.44;;;8.02;95.44
61506;BME280;47366;51.916;4.574;2023-01-13T01:11:30;100404.94;;;8.01;95.57
61506;BME280;47366;51.916;4.574;2023-01-13T01:13:59;100415.03;;;7.97;95.82
61506;BME280;47366;51.916;4.574;2023-01-13T01:16:26;100404.25;;;7.97;95.58
61506;BME280;47366;51.916;4.574;2023-01-13T01:18:53;100388.25;;;7.94;95.74
61506;BME280;47366;51.916;4.574;2023-01-13T01:21:19;100389.97;;;7.95;95.67
61506;BME280;47366;51.916;4.574;2023-01-13T01:23:45;100390.09;;;7.94;95.73
61506;BME280;47366;51.916;4.574;2023-01-13T01:26:13;100388.25;;;7.94;95.73
61506;BME280;47366;51.916;4.574;2023-01-13T01:28:39;100387.66;;;7.89;95.79
61506;BME280;47366;51.916;4.574;2023-01-13T01:31:06;100381.28;;;7.90;95.48
61506;BME280;47366;51.916;4.574;2023-01-13T01:33:32;100394.84;;;7.88;95.26
61506;BME280;47366;51.916;4.574;2023-01-13T01:35:59;100392.25;;;7.87;95.51
61506;BME280;47366;51.916;4.574;2023-01-13T01:38:25;100393.03;;;7.89;95.08
61506;BME280;47366;51.916;4.574;2023-01-13T01:40:50;100386.00;;;7.86;95.04
61506;BME280;47366;51.916;4.574;2023-01-13T01:43:19;100380.75;;;7.83;94.96
61506;BME280;47366;51.916;4.574;2023-01-13T01:46:04;100386.94;;;7.85;94.28
61506;BME280;47366;51.916;4.574;2023-01-13T01:48:33;100374.50;;;7.83;94.20
61506;BME280;47366;51.916;4.574;2023-01-13T01:51:03;100379.03;;;7.82;93.74
61506;BME280;47366;51.916;4.574;2023-01-13T01:53:31;100384.31;;;7.84;93.19
61506;BME280;47366;51.916;4.574;2023-01-13T01:55:58;100378.19;;;7.82;93.21
61506;BME280;47366;51.916;4.574;2023-01-13T01:58:31;100381.81;;;7.81;92.49
61506;BME280;47366;51.916;4.574;2023-01-13T02:00:58;100403.19;;;7.84;92.92
61506;BME280;47366;51.916;4.574;2023-01-13T02:03:24;100393.31;;;7.84;92.54
61506;BME280;47366;51.916;4.574;2023-01-13T02:05:50;100388.69;;;7.86;92.25
61506;BME280;47366;51.916;4.574;2023-01-13T02:08:15;100377.91;;;7.86;92.64
61506;BME280;47366;51.916;4.574;2023-01-13T02:10:42;100378.78;;;7.87;92.24
61506;BME280;47366;51.916;4.574;2023-01-13T02:13:11;100372.41;;;7.88;92.31
61506;BME280;47366;51.916;4.574;2023-01-13T02:15:42;100366.22;;;7.86;91.98
61506;BME280;47366;51.916;4.574;2023-01-13T02:29:50;100359.97;;;7.85;90.12
61506;BME280;47366;51.916;4.574;2023-01-13T02:35:49;100350.84;;;7.88;89.65
61506;BME280;47366;51.916;4.574;2023-01-13T02:38:23;100345.72;;;7.83;89.09
61506;BME280;47366;51.916;4.574;2023-01-13T02:40:58;100355.63;;;7.83;89.71
61506;BME280;47366;51.916;4.574;2023-01-13T02:43:47;100358.59;;;7.78;89.62
61506;BME280;47366;51.916;4.574;2023-01-13T02:46:37;100354.34;;;7.74;89.24
61506;BME280;47366;51.916;4.574;2023-01-13T02:49:07;100348.00;;;7.75;89.54
61506;BME280;47366;51.916;4.574;2023-01-13T02:51:35;100363.19;;;7.76;89.79
61506;BME280;47366;51.916;4.574;2023-01-13T02:54:07;100365.22;;;7.73;89.84
61506;BME280;47366;51.916;4.574;2023-01-13T02:56:39;100374.84;;;7.77;89.59
61506;BME280;47366;51.916;4.574;2023-01-13T02:59:06;100363.47;;;7.72;89.90
61506;BME280;47366;51.916;4.574;2023-01-13T03:01:32;100373.97;;;7.76;89.63
61506;BME280;47366;51.916;4.574;2023-01-13T03:03:57;100360.63;;;7.75;89.70
61506;BME280;47366;51.916;4.574;2023-01-13T03:06:38;100347.22;;;7.73;90.21
61506;BME280;47366;51.916;4.574;2023-01-13T03:09:19;100366.00;;;7.75;90.07
61506;BME280;47366;51.916;4.574;2023-01-13T03:12:14;100359.84;;;7.73;90.19
61506;BME280;47366;51.916;4.574;2023-01-13T03:14:59;100368.97;;;7.70;90.45
61506;BME280;47366;51.916;4.574;2023-01-13T03:18:26;100377.13;;;7.69;90.73
61506;BME280;47366;51.916;4.574;2023-01-13T03:20:34;100378.69;;;7.73;90.96
61506;BME280;47366;51.916;4.574;2023-01-13T03:23:06;100381.47;;;7.71;91.36
61506;BME280;47366;51.916;4.574;2023-01-13T03:25:35;100368.25;;;7.66;91.60
61506;BME280;47366;51.916;4.574;2023-01-13T03:28:15;100365.56;;;7.66;91.65
61506;BME280;47366;51.916;4.574;2023-01-13T03:30:50;100375.56;;;7.64;91.86
61506;BME280;47366;51.916;4.574;2023-01-13T03:33:24;100364.88;;;7.63;91.98
61506;BME280;47366;51.916;4.574;2023-01-13T03:35:54;100353.47;;;7.58;92.01
61506;BME280;47366;51.916;4.574;2023-01-13T03:38:41;100357.75;;;7.62;92.08
61506;BME280;47366;51.916;4.574;2023-01-13T03:41:29;100363.06;;;7.63;92.19
61506;BME280;47366;51.916;4.574;2023-01-13T03:44:19;100365.81;;;7.62;91.95
61506;BME280;47366;51.916;4.574;2023-01-13T03:47:01;100360.63;;;7.59;91.81
61506;BME280;47366;51.916;4.574;2023-01-13T03:52:23;100364.16;;;7.59;91.60
61506;BME280;47366;51.916;4.574;2023-01-13T03:54:55;100363.25;;;7.60;91.54
61506;BME280;47366;51.916;4.574;2023-01-13T03:57:27;100366.78;;;7.61;91.39
61506;BME280;47366;51.916;4.574;2023-01-13T03:59:57;100369.63;;;7.58;90.74
61506;BME280;47366;51.916;4.574;2023-01-13T04:02:37;100374.03;;;7.60;90.63
61506;BME280;47366;51.916;4.574;2023-01-13T04:05:07;100367.91;;;7.57;90.81
61506;BME280;47366;51.916;4.574;2023-01-13T04:10:13;100370.78;;;7.54;89.51
61506;BME280;47366;51.916;4.574;2023-01-13T04:12:49;100379.66;;;7.56;89.86
61506;BME280;47366;51.916;4.574;2023-01-13T04:15:26;100360.09;;;7.52;89.46
61506;BME280;47366;51.916;4.574;2023-01-13T04:17:52;100379.81;;;7.53;89.84
61506;BME280;47366;51.916;4.574;2023-01-13T04:20:18;100363.75;;;7.51;89.34
61506;BME280;47366;51.916;4.574;2023-01-13T04:22:44;100371.72;;;7.53;88.76
61506;BME280;47366;51.916;4.574;2023-01-13T04:25:09;100372.69;;;7.52;88.90
61506;BME280;47366;51.916;4.574;2023-01-13T04:27:35;100368.34;;;7.49;89.29
61506;BME280;47366;51.916;4.574;2023-01-13T04:30:01;100372.78;;;7.50;89.13
61506;BME280;47366;51.916;4.574;2023-01-13T04:32:26;100366.53;;;7.50;89.43
61506;BME280;47366;51.916;4.574;2023-01-13T04:34:51;100354.88;;;7.49;89.57
61506;BME280;47366;51.916;4.574;2023-01-13T04:37:17;100366.44;;;7.51;89.39
61506;BME280;47366;51.916;4.574;2023-01-13T04:39:42;100360.28;;;7.49;89.57
61506;BME280;47366;51.916;4.574;2023-01-13T04:42:07;100369.22;;;7.50;89.67
61506;BME280;47366;51.916;4.574;2023-01-13T04:44:33;100370.19;;;7.49;89.49
61506;BME280;47366;51.916;4.574;2023-01-13T04:47:03;100376.34;;;7.51;90.16
61506;BME280;47366;51.916;4.574;2023-01-13T04:49:29;100376.34;;;7.51;90.39
61506;BME280;47366;51.916;4.574;2023-01-13T04:51:54;100386.09;;;7.53;90.58
61506;BME280;47366;51.916;4.574;2023-01-13T04:54:20;100387.75;;;7.56;90.67
61506;BME280;47366;51.916;4.574;2023-01-13T04:56:45;100394.00;;;7.56;90.79
61506;BME280;47366;51.916;4.574;2023-01-13T04:59:12;100390.25;;;7.59;90.60
61506;BME280;47366;51.916;4.574;2023-01-13T05:01:38;100385.75;;;7.59;90.58
61506;BME280;47366;51.916;4.574;2023-01-13T05:04:04;100392.97;;;7.59;90.34
61506;BME280;47366;51.916;4.574;2023-01-13T05:06:30;100389.41;;;7.58;90.20
61506;BME280;47366;51.916;4.574;2023-01-13T05:08:55;100391.19;;;7.58;89.66
61506;BME280;47366;51.916;4.574;2023-01-13T05:11:21;100393.81;;;7.59;89.73
61506;BME280;47366;51.916;4.574;2023-01-13T05:14:05;100377.56;;;7.61;89.88
61506;BME280;47366;51.916;4.574;2023-01-13T05:16:51;100374.88;;;7.61;89.87
61506;BME280;47366;51.916;4.574;2023-01-13T05:19:31;100379.47;;;7.59;89.79
61506;BME280;47366;51.916;4.574;2023-01-13T05:21:57;100384.16;;;7.55;89.35
61506;BME280;47366;51.916;4.574;2023-01-13T05:24:41;100376.78;;;7.59;89.33
61506;BME280;47366;51.916;4.574;2023-01-13T05:27:25;100387.56;;;7.59;89.17
61506;BME280;47366;51.916;4.574;2023-01-13T05:29:51;100385.81;;;7.58;89.14
61506;BME280;47366;51.916;4.574;2023-01-13T05:32:16;100390.53;;;7.54;88.94
61506;BME280;47366;51.916;4.574;2023-01-13T05:34:42;100395.91;;;7.54;88.84
61506;BME280;47366;51.916;4.574;2023-01-13T05:37:08;100399.56;;;7.53;88.26
61506;BME280;47366;51.916;4.574;2023-01-13T05:39:35;100394.94;;;7.55;89.16
61506;BME280;47366;51.916;4.574;2023-01-13T05:42:19;100383.31;;;7.55;88.02
61506;BME280;47366;51.916;4.574;2023-01-13T05:45:03;100385.22;;;7.53;88.32
61506;BME280;47366;51.916;4.574;2023-01-13T05:47:30;100384.28;;;7.54;88.46
61506;BME280;47366;51.916;4.574;2023-01-13T05:49:55;100395.97;;;7.53;87.64
61506;BME280;47366;51.916;4.574;2023-01-13T05:52:20;100386.25;;;7.50;86.94
61506;BME280;47366;51.916;4.574;2023-01-13T05:54:46;100396.88;;;7.53;86.36
61506;BME280;47366;51.916;4.574;2023-01-13T05:57:11;100397.63;;;7.55;85.92
61506;BME280;47366;51.916;4.574;2023-01-13T05:59:36;100407.38;;;7.58;85.95
61506;BME280;47366;51.916;4.574;2023-01-13T06:02:01;100401.91;;;7.59;85.88
61506;BME280;47366;51.916;4.574;2023-01-13T06:04:27;100405.31;;;7.63;86.07
61506;BME280;47366;51.916;4.574;2023-01-13T06:06:52;100398.94;;;7.64;86.31
61506;BME280;47366;51.916;4.574;2023-01-13T06:09:17;100388.25;;;7.62;85.10
61506;BME280;47366;51.916;4.574;2023-01-13T06:11:45;100392.59;;;7.65;85.51
61506;BME280;47366;51.916;4.574;2023-01-13T06:14:10;100377.22;;;7.67;85.30
61506;BME280;47366;51.916;4.574;2023-01-13T06:16:36;100384.44;;;7.66;85.60
61506;BME280;47366;51.916;4.574;2023-01-13T06:19:01;100375.47;;;7.66;85.89
61506;BME280;47366;51.916;4.574;2023-01-13T06:21:27;100381.66;;;7.68;86.02
61506;BME280;47366;51.916;4.574;2023-01-13T06:23:52;100382.53;;;7.69;85.77
61506;BME280;47366;51.916;4.574;2023-01-13T06:26:22;100379.63;;;7.72;85.25
61506;BME280;47366;51.916;4.574;2023-01-13T06:28:49;100373.38;;;7.71;85.01
61506;BME280;47366;51.916;4.574;2023-01-13T06:31:14;100385.91;;;7.72;85.68
61506;BME280;47366;51.916;4.574;2023-01-13T06:33:52;100395.81;;;7.72;85.31
61506;BME280;47366;51.916;4.574;2023-01-13T06:36:24;100392.25;;;7.71;85.51
61506;BME280;47366;51.916;4.574;2023-01-13T06:38:55;100402.00;;;7.74;85.81
61506;BME280;47366;51.916;4.574;2023-01-13T06:41:23;100390.34;;;7.73;85.48
61506;BME280;47366;51.916;4.574;2023-01-13T06:44:08;100397.56;;;7.73;85.39
61506;BME280;47366;51.916;4.574;2023-01-13T06:46:34;100401.13;;;7.73;84.84
61506;BME280;47366;51.916;4.574;2023-01-13T06:48:59;100403.56;;;7.78;85.07
61506;BME280;47366;51.916;4.574;2023-01-13T06:51:25;100406.06;;;7.81;85.04
61506;BME280;47366;51.916;4.574;2023-01-13T06:53:50;100416.00;;;7.80;84.64
61506;BME280;47366;51.916;4.574;2023-01-13T06:56:15;100420.41;;;7.81;84.93
61506;BME280;47366;51.916;4.574;2023-01-13T06:58:41;100408.16;;;7.76;84.86
61506;BME280;47366;51.916;4.574;2023-01-13T07:01:06;100415.13;;;7.80;84.53
61506;BME280;47366;51.916;4.574;2023-01-13T07:03:31;100401.66;;;7.80;83.94
61506;BME280;47366;51.916;4.574;2023-01-13T07:05:57;100411.41;;;7.82;84.48
61506;BME280;47366;51.916;4.574;2023-01-13T07:08:23;100406.06;;;7.81;83.93
61506;BME280;47366;51.916;4.574;2023-01-13T07:10:48;100409.63;;;7.81;83.82
61506;BME280;47366;51.916;4.574;2023-01-13T07:13:15;100421.31;;;7.82;84.21
61506;BME280;47366;51.916;4.574;2023-01-13T07:16:02;100414.34;;;7.78;84.04
61506;BME280;47366;51.916;4.574;2023-01-13T07:18:29;100409.81;;;7.78;83.33
61506;BME280;47366;51.916;4.574;2023-01-13T07:21:00;100406.25;;;7.78;83.26
61506;BME280;47366;51.916;4.574;2023-01-13T07:23:27;100420.34;;;7.83;83.70
61506;BME280;47366;51.916;4.574;2023-01-13T07:25:54;100438.25;;;7.84;83.29
61506;BME280;47366;51.916;4.574;2023-01-13T07:28:20;100427.56;;;7.82;83.40
61506;BME280;47366;51.916;4.574;2023-01-13T07:30:45;100431.13;;;7.83;83.11
61506;BME280;47366;51.916;4.574;2023-01-13T07:33:11;100431.06;;;7.84;82.87
61506;BME280;47366;51.916;4.574;2023-01-13T07:35:36;100435.41;;;7.87;81.79
61506;BME280;47366;51.916;4.574;2023-01-13T07:38:02;100430.69;;;7.91;82.49
61506;BME280;47366;51.916;4.574;2023-01-13T07:40:27;100436.88;;;7.93;82.47
61506;BME280;47366;51.916;4.574;2023-01-13T07:42:52;100428.00;;;7.91;82.11
61506;BME280;47366;51.916;4.574;2023-01-13T07:45:36;100430.53;;;7.94;82.45
61506;BME280;47366;51.916;4.574;2023-01-13T07:48:02;100442.19;;;7.94;81.37
61506;BME280;47366;51.916;4.574;2023-01-13T07:50:27;100439.50;;;7.94;82.01
61506;BME280;47366;51.916;4.574;2023-01-13T07:52:56;100455.41;;;7.99;81.95
61506;BME280;47366;51.916;4.574;2023-01-13T07:55:22;100453.56;;;7.99;81.63
61506;BME280;47366;51.916;4.574;2023-01-13T07:57:47;100466.97;;;8.01;81.39
61506;BME280;47366;51.916;4.574;2023-01-13T08:00:13;100465.03;;;8.03;81.49
61506;BME280;47366;51.916;4.574;2023-01-13T08:02:39;100464.00;;;8.05;80.99
61506;BME280;47366;51.916;4.574;2023-01-13T08:05:04;100465.75;;;8.06;80.13
61506;BME280;47366;51.916;4.574;2023-01-13T08:07:30;100468.25;;;8.09;81.17
61506;BME280;47366;51.916;4.574;2023-01-13T08:09:55;100471.94;;;8.08;81.16
61506;BME280;47366;51.916;4.574;2023-01-13T08:12:20;100479.91;;;8.10;80.43
61506;BME280;47366;51.916;4.574;2023-01-13T08:15:05;100472.88;;;8.07;80.73
61506;BME280;47366;51.916;4.574;2023-01-13T08:17:31;100490.69;;;8.10;80.65
61506;BME280;47366;51.916;4.574;2023-01-13T08:19:56;100483.31;;;8.14;80.84
61506;BME280;47366;51.916;4.574;2023-01-13T08:22:21;100492.34;;;8.13;80.50
61506;BME280;47366;51.916;4.574;2023-01-13T08:24:47;100485.84;;;8.17;80.32
61506;BME280;47366;51.916;4.574;2023-01-13T08:27:12;100493.00;;;8.18;80.09
61506;BME280;47366;51.916;4.574;2023-01-13T08:29:37;100501.09;;;8.18;80.22
61506;BME280;47366;51.916;4.574;2023-01-13T08:32:03;100489.66;;;8.13;80.59
61506;BME280;47366;51.916;4.574;2023-01-13T08:34:28;100503.06;;;8.14;81.17
61506;BME280;47366;51.916;4.574;2023-01-13T08:36:53;100509.59;;;8.10;81.61
61506;BME280;47366;51.916;4.574;2023-01-13T08:39:19;100507.94;;;8.07;82.38
61506;BME280;47366;51.916;4.574;2023-01-13T08:41:44;100512.72;;;8.02;82.66
61506;BME280;47366;51.916;4.574;2023-01-13T08:44:28;100510.88;;;8.03;83.24
61506;BME280;47366;51.916;4.574;2023-01-13T08:46:54;100517.50;;;7.97;83.87
61506;BME280;47366;51.916;4.574;2023-01-13T08:49:21;100511.69;;;7.89;84.41
61506;BME280;47366;51.916;4.574;2023-01-13T08:51:48;100517.16;;;7.87;84.41
61506;BME280;47366;51.916;4.574;2023-01-13T08:54:14;100525.81;;;7.77;85.32
61506;BME280;47366;51.916;4.574;2023-01-13T08:56:41;100534.03;;;7.75;85.81
61506;BME280;47366;51.916;4.574;2023-01-13T08:59:11;100521.66;;;7.71;85.96
61506;BME280;47366;51.916;4.574;2023-01-13T09:01:38;100536.97;;;7.71;86.48
61506;BME280;47366;51.916;4.574;2023-01-13T09:04:18;100547.03;;;7.67;87.06
61506;BME280;47366;51.916;4.574;2023-01-13T09:06:44;100546.16;;;7.66;87.13
61506;BME280;47366;51.916;4.574;2023-01-13T09:09:10;100551.63;;;7.65;87.65
61506;BME280;47366;51.916;4.574;2023-01-13T09:11:39;100538.25;;;7.63;87.41
61506;BME280;47366;51.916;4.574;2023-01-13T09:14:25;100549.13;;;7.62;87.62
61506;BME280;47366;51.916;4.574;2023-01-13T09:16:50;100554.44;;;7.63;88.10
61506;BME280;47366;51.916;4.574;2023-01-13T09:19:16;100558.84;;;7.64;88.50
61506;BME280;47366;51.916;4.574;2023-01-13T09:21:41;100553.56;;;7.63;88.13
61506;BME280;47366;51.916;4.574;2023-01-13T09:24:07;100558.97;;;7.63;87.97
61506;BME280;47366;51.916;4.574;2023-01-13T09:26:32;100568.59;;;7.67;87.99
61506;BME280;47366;51.916;4.574;2023-01-13T09:28:58;100557.03;;;7.65;87.82
61506;BME280;47366;51.916;4.574;2023-01-13T09:31:23;100561.31;;;7.69;87.99
61506;BME280;47366;51.916;4.574;2023-01-13T09:33:49;100563.13;;;7.69;87.87
61506;BME280;47366;51.916;4.574;2023-01-13T09:36:32;100565.66;;;7.72;87.86
61506;BME280;47366;51.916;4.574;2023-01-13T09:38:58;100567.47;;;7.71;87.59
61506;BME280;47366;51.916;4.574;2023-01-13T09:41:25;100581.41;;;7.79;87.85
61506;BME280;47366;51.916;4.574;2023-01-13T09:44:36;100593.09;;;7.80;86.95
61506;BME280;47366;51.916;4.574;2023-01-13T09:47:44;100593.09;;;7.80;87.53
61506;BME280;47366;51.916;4.574;2023-01-13T09:50:21;100599.28;;;7.82;87.02
61506;BME280;47366;51.916;4.574;2023-01-13T09:52:48;100590.03;;;7.86;86.26
61506;BME280;47366;51.916;4.574;2023-01-13T09:55:32;100603.38;;;7.89;86.63
61506;BME280;47366;51.916;4.574;2023-01-13T09:58:00;100591.56;;;7.92;86.25
61506;BME280;47366;51.916;4.574;2023-01-13T10:00:31;100604.06;;;7.93;85.71
61506;BME280;47366;51.916;4.574;2023-01-13T10:05:46;100620.88;;;7.98;85.14
61506;BME280;47366;51.916;4.574;2023-01-13T10:08:20;100612.69;;;7.99;85.52
61506;BME280;47366;51.916;4.574;2023-01-13T10:10:54;100624.28;;;8.01;85.41
61506;BME280;47366;51.916;4.574;2023-01-13T10:13:27;100626.97;;;8.01;85.45
61506;BME280;47366;51.916;4.574;2023-01-13T10:18:35;100631.16;;;8.07;86.26
61506;BME280;47366;51.916;4.574;2023-01-13T10:21:18;100624.72;;;8.09;85.87
61506;BME280;47366;51.916;4.574;2023-01-13T10:24:00;100639.72;;;8.15;84.97
61506;BME280;47366;51.916;4.574;2023-01-13T10:26:45;100633.28;;;8.18;84.57
61506;BME280;47366;51.916;4.574;2023-01-13T10:29:23;100641.19;;;8.21;84.36
61506;BME280;47366;51.916;4.574;2023-01-13T10:31:50;100665.22;;;8.25;84.12
61506;BME280;47366;51.916;4.574;2023-01-13T10:34:16;100657.81;;;8.29;84.12
61506;BME280;47366;51.916;4.574;2023-01-13T10:36:53;100663.53;;;8.40;83.13
61506;BME280;47366;51.916;4.574;2023-01-13T10:39:23;100659.59;;;8.46;82.97
61506;BME280;47366;51.916;4.574;2023-01-13T10:42:02;100658.56;;;8.48;83.20
61506;BME280;47366;51.916;4.574;2023-01-13T10:44:28;100663.28;;;8.45;82.94
61506;BME280;47366;51.916;4.574;2023-01-13T10:46:55;100666.06;;;8.43;82.48
61506;BME280;47366;51.916;4.574;2023-01-13T10:49:34;100680.25;;;8.47;82.17
61506;BME280;47366;51.916;4.574;2023-01-13T10:52:24;100675.81;;;8.46;82.54
61506;BME280;47366;51.916;4.574;2023-01-13T10:54:53;100668.44;;;8.49;82.42
61506;BME280;47366;51.916;4.574;2023-01-13T10:57:23;100672.84;;;8.50;81.97
61506;BME280;47366;51.916;4.574;2023-01-13T10:59:49;100681.84;;;8.51;81.93
61506;BME280;47366;51.916;4.574;2023-01-13T11:07:25;100677.47;;;8.48;81.27
61506;BME280;47366;51.916;4.574;2023-01-13T11:12:37;100685.41;;;8.52;82.24
61506;BME280;47366;51.916;4.574;2023-01-13T11:15:08;100691.69;;;8.52;82.09
61506;BME280;47366;51.916;4.574;2023-01-13T11:17:38;100689.75;;;8.54;81.48
61506;BME280;47366;51.916;4.574;2023-01-13T11:20:24;100700.31;;;8.59;81.45
61506;BME280;47366;51.916;4.574;2023-01-13T11:22:58;100710.00;;;8.63;81.20
61506;BME280;47366;51.916;4.574;2023-01-13T11:25:30;100691.78;;;8.66;80.15
61506;BME280;47366;51.916;4.574;2023-01-13T11:33:40;100714.97;;;8.70;79.86
61506;BME280;47366;51.916;4.574;2023-01-13T11:36:19;100715.03;;;8.69;79.52
61506;BME280;47366;51.916;4.574;2023-01-13T11:38:57;100730.38;;;8.68;79.80
61506;BME280;47366;51.916;4.574;2023-01-13T11:42:00;100722.34;;;8.67;79.70
61506;BME280;47366;51.916;4.574;2023-01-13T11:47:37;100735.16;;;8.63;79.83
61506;BME280;47366;51.916;4.574;2023-01-13T11:50:12;100734.38;;;8.61;80.32
61506;BME280;47366;51.916;4.574;2023-01-13T11:55:19;100743.94;;;8.67;80.68
61506;BME280;47366;51.916;4.574;2023-01-13T12:00:54;100749.44;;;8.65;81.07
61506;BME280;47366;51.916;4.574;2023-01-13T12:04:04;100755.59;;;8.67;81.08
61506;BME280;47366;51.916;4.574;2023-01-13T12:06:39;100747.34;;;8.70;80.61
61506;BME280;47366;51.916;4.574;2023-01-13T12:22:40;100775.16;;;8.88;79.70
61506;BME280;47366;51.916;4.574;2023-01-13T12:25:23;100772.38;;;8.90;79.36
61506;BME280;47366;51.916;4.574;2023-01-13T12:28:22;100774.38;;;8.86;79.68
61506;BME280;47366;51.916;4.574;2023-01-13T12:30:48;100788.91;;;8.84;79.13
61506;BME280;47366;51.916;4.574;2023-01-13T12:36:39;100775.59;;;8.81;78.79
61506;BME280;47366;51.916;4.574;2023-01-13T12:44:28;100801.56;;;8.83;78.41
61506;BME280;47366;51.916;4.574;2023-01-13T12:46:55;100789.81;;;8.84;79.39
61506;BME280;47366;51.916;4.574;2023-01-13T12:49:23;100809.47;;;8.86;78.69
61506;BME280;47366;51.916;4.574;2023-01-13T12:56:54;100828.13;;;8.91;78.88
61506;BME280;47366;51.916;4.574;2023-01-13T13:01:48;100818.47;;;8.87;78.94
61506;BME280;47366;51.916;4.574;2023-01-13T13:04:19;100837.28;;;8.88;79.00
61506;BME280;47366;51.916;4.574;2023-01-13T13:06:53;100836.50;;;8.86;79.55
61506;BME280;47366;51.916;4.574;2023-01-13T13:09:48;100838.25;;;8.87;78.81
61506;BME280;47366;51.916;4.574;2023-01-13T13:15:33;100846.19;;;8.90;79.28
61506;BME280;47366;51.916;4.574;2023-01-13T13:20:59;100844.28;;;8.92;79.81
61506;BME280;47366;51.916;4.574;2023-01-13T13:29:14;100852.44;;;8.91;78.40
61506;BME280;47366;51.916;4.574;2023-01-13T13:34:54;100857.78;;;8.92;78.85
61506;BME280;47366;51.916;4.574;2023-01-13T13:39:48;100873.97;;;8.92;79.25
61506;BME280;47366;51.916;4.574;2023-01-13T13:42:43;100878.34;;;8.95;78.73
61506;BME280;47366;51.916;4.574;2023-01-13T13:45:30;100880.00;;;8.98;78.74
61506;BME280;47366;51.916;4.574;2023-01-13T13:48:32;100893.59;;;8.96;78.93
61506;BME280;47366;51.916;4.574;2023-01-13T13:51:01;100905.38;;;8.95;79.03
61506;BME280;47366;51.916;4.574;2023-01-13T13:53:31;100905.28;;;8.97;78.81
61506;BME280;47366;51.916;4.574;2023-01-13T13:55:59;100910.69;;;8.97;78.89
61506;BME280;47366;51.916;4.574;2023-01-13T13:58:27;100898.28;;;8.92;78.94
61506;BME280;47366;51.916;4.574;2023-01-13T14:00:55;100916.16;;;8.95;79.00
61506;BME280;47366;51.916;4.574;2023-01-13T14:03:28;100935.00;;;8.97;79.04
61506;BME280;47366;51.916;4.574;2023-01-13T14:05:58;100936.03;;;8.94;78.84
61506;BME280;47366;51.916;4.574;2023-01-13T14:08:27;100935.25;;;8.92;79.36
61506;BME280;47366;51.916;4.574;2023-01-13T14:10:53;100948.75;;;8.92;78.96
61506;BME280;47366;51.916;4.574;2023-01-13T14:13:29;100946.84;;;8.94;78.61
61506;BME280;47366;51.916;4.574;2023-01-13T14:16:03;100948.75;;;8.92;78.99
61506;BME280;47366;51.916;4.574;2023-01-13T14:18:43;100956.00;;;8.91;78.54
61506;BME280;47366;51.916;4.574;2023-01-13T14:21:24;100950.50;;;8.93;78.88
61506;BME280;47366;51.916;4.574;2023-01-13T14:23:55;100971.22;;;8.92;79.10
61506;BME280;47366;51.916;4.574;2023-01-13T14:26:29;100945.25;;;8.90;78.49
61506;BME280;47366;51.916;4.574;2023-01-13T14:28:57;100949.00;;;8.87;78.52
61506;BME280;47366;51.916;4.574;2023-01-13T14:31:24;100953.44;;;8.88;78.15
61506;BME280;47366;51.916;4.574;2023-01-13T14:33:52;100968.84;;;8.86;79.00
61506;BME280;47366;51.916;4.574;2023-01-13T14:41:32;100974.47;;;8.82;79.05
61506;BME280;47366;51.916;4.574;2023-01-13T14:43:59;100977.28;;;8.80;78.57
61506;BME280;47366;51.916;4.574;2023-01-13T14:46:39;101000.97;;;8.75;78.81
61506;BME280;47366;51.916;4.574;2023-01-13T14:49:18;100998.31;;;8.74;79.24
61506;BME280;47366;51.916;4.574;2023-01-13T14:51:47;101000.16;;;8.73;80.17
61506;BME280;47366;51.916;4.574;2023-01-13T14:54:51;101010.97;;;8.73;80.40
61506;BME280;47366;51.916;4.574;2023-01-13T14:57:23;100998.50;;;8.70;80.78
61506;BME280;47366;51.916;4.574;2023-01-13T14:59:59;101017.53;;;8.67;80.81